Time;durP1;ratioP1;P1;durP2;ratioP2;P2;SDS_P1;SDS_P2;PMS_P1;PMS_P2;Temp;Humidity;BMP_temperature;BMP_pressure;BME280_temperature;BME280_humidity;BME280_pressure;Samples;Min_cycle;Max_cycle;Signal;HPM_P1;HPM_P2
2022/06/12 00:00:54;;;;;;;10.48;9.30;;;;;;;18.77;80.64;98965.47;4925086;29;20042;-94
2022/06/12 00:03:21;;;;;;;10.63;8.75;;;;;;;18.77;80.79;98961.94;4924881;29;20401;-94
2022/06/12 00:05:49;;;;;;;11.70;8.20;;;;;;;18.54;80.74;98956.81;4940202;29;20466;-92
2022/06/12 00:08:14;;;;;;;10.48;9.18;;;;;;;18.57;79.77;98966.25;4924904;29;20030;-93
2022/06/12 00:10:41;;;;;;;10.18;9.15;;;;;;;18.46;79.79;98949.50;4956616;29;20027;-95
2022/06/12 00:13:08;;;;;;;12.75;9.77;;;;;;;18.52;80.68;98969.19;4925637;29;20059;-94
2022/06/12 00:15:33;;;;;;;13.68;10.63;;;;;;;18.37;80.53;98959.66;4924956;29;20063;-95
2022/06/12 00:17:59;;;;;;;13.05;11.02;;;;;;;18.37;80.40;98979.53;4939919;29;20035;-94
2022/06/12 00:20:25;;;;;;;12.48;11.15;;;;;;;18.31;80.81;98955.53;4924739;29;20118;-94
2022/06/12 00:22:52;;;;;;;15.57;11.60;;;;;;;18.29;81.13;98961.31;4925385;29;20031;-94
2022/06/12 00:25:18;;;;;;;14.98;10.23;;;;;;;18.24;81.18;98953.34;4924190;29;20156;-94
2022/06/12 00:27:44;;;;;;;11.05;9.95;;;;;;;18.20;81.51;98944.22;4924722;29;20034;-94
2022/06/12 00:30:11;;;;;;;16.17;10.65;;;;;;;18.25;81.41;98962.31;4955417;28;20473;-95
2022/06/12 00:32:37;;;;;;;11.23;9.60;;;;;;;18.07;81.78;98937.06;4923998;29;20026;-93
2022/06/12 00:35:05;;;;;;;11.20;8.73;;;;;;;18.07;81.29;98926.16;4923702;29;20062;-93
2022/06/12 00:37:31;;;;;;;11.90;9.05;;;;;;;18.13;82.22;98946.66;4924221;29;20043;-94
2022/06/12 00:39:57;;;;;;;11.15;8.32;;;;;;;18.06;81.48;98933.56;4923587;29;20023;-93
2022/06/12 00:42:35;;;;;;;8.18;6.95;;;;;;;18.08;81.13;98935.97;4939447;29;20486;-94
2022/06/12 00:45:01;;;;;;;8.57;7.43;;;;;;;18.04;81.38;98927.63;4955999;28;20503;-94
2022/06/12 00:47:27;;;;;;;7.70;6.90;;;;;;;18.03;81.31;98927.94;4955792;28;20118;-93
2022/06/12 00:50:03;;;;;;;8.02;7.22;;;;;;;18.01;81.59;98930.22;4923630;29;20031;-93
2022/06/12 00:52:34;;;;;;;9.02;6.45;;;;;;;17.89;81.74;98937.16;4956022;28;20031;-93
2022/06/12 00:55:18;;;;;;;7.77;5.93;;;;;;;17.87;81.60;98917.63;4939031;29;20027;-96
2022/06/12 00:57:44;;;;;;;7.18;5.85;;;;;;;17.93;81.75;98931.88;4924627;29;20025;-95
2022/06/12 01:00:12;;;;;;;6.70;6.10;;;;;;;18.00;81.54;98931.34;4923464;29;20038;-92
2022/06/12 01:02:38;;;;;;;6.22;5.63;;;;;;;17.96;81.70;98942.88;4924100;29;20418;-95
2022/06/12 01:07:51;;;;;;;6.20;5.43;;;;;;;17.87;81.83;98928.53;4941745;29;20085;-95
2022/06/12 01:10:17;;;;;;;5.40;4.90;;;;;;;17.92;82.09;98930.25;4923063;29;20035;-94
2022/06/12 01:12:51;;;;;;;5.53;4.85;;;;;;;18.01;82.02;98941.91;4923545;29;20031;-94
2022/06/12 01:15:18;;;;;;;5.47;4.82;;;;;;;18.03;81.90;98936.91;4924176;29;20035;-95
2022/06/12 01:17:43;;;;;;;4.30;3.78;;;;;;;18.08;81.54;98941.41;4938561;29;20019;-93
2022/06/12 01:20:12;;;;;;;4.55;4.15;;;;;;;17.94;81.94;98917.09;4923108;29;20424;-95
2022/06/12 01:22:57;;;;;;;4.25;3.85;;;;;;;18.16;82.05;98930.44;4954703;28;20027;-95
2022/06/12 01:25:37;;;;;;;4.65;4.10;;;;;;;18.13;81.90;98930.31;4955239;29;20413;-93
2022/06/12 01:28:25;;;;;;;4.18;3.78;;;;;;;18.17;81.42;98925.78;4955893;28;20034;-94
2022/06/12 01:31:38;;;;;;;3.83;3.28;;;;;;;18.17;80.99;98931.25;4954972;28;20031;-92
2022/06/12 01:34:28;;;;;;;6.45;3.75;;;;;;;18.13;82.67;98922.13;4978032;28;20038;-94
2022/06/12 01:37:04;;;;;;;7.13;3.75;;;;;;;18.13;82.29;98927.56;4954732;29;20134;-94
2022/06/12 01:39:40;;;;;;;5.97;3.05;;;;;;;18.06;82.07;98919.94;4923485;29;20023;-94
2022/06/12 01:42:25;;;;;;;3.72;2.92;;;;;;;18.18;81.01;98916.50;4924183;29;20030;-92
2022/06/12 01:45:00;;;;;;;3.50;3.08;;;;;;;18.20;80.73;98927.06;4923184;29;20027;-93
2022/06/12 01:47:58;;;;;;;4.20;3.50;;;;;;;18.03;81.14;98931.47;4939244;29;20063;-94
2022/06/12 01:50:35;;;;;;;5.53;3.70;;;;;;;18.06;81.89;98930.03;4982478;28;20090;-94
2022/06/12 01:53:24;;;;;;;4.28;3.88;;;;;;;17.90;81.85;98902.56;4954698;29;20031;-93
2022/06/12 01:55:54;;;;;;;4.30;3.42;;;;;;;18.04;81.40;98930.34;4956906;28;20027;-93
2022/06/12 01:58:32;;;;;;;4.70;4.20;;;;;;;18.07;81.00;98921.50;4954262;29;20114;-94
2022/06/12 02:01:20;;;;;;;4.60;3.90;;;;;;;18.09;81.62;98932.09;4938673;29;20577;-92
2022/06/12 02:03:50;;;;;;;4.00;3.50;;;;;;;17.95;81.17;98916.78;4955000;28;20074;-93
2022/06/12 02:06:19;;;;;;;5.15;3.92;;;;;;;17.97;81.90;98928.16;4926665;29;20031;-95
2022/06/12 02:08:57;;;;;;;5.47;4.60;;;;;;;18.01;82.40;98936.44;4958285;28;20027;-95
2022/06/12 02:14:19;;;;;;;5.35;4.40;;;;;;;17.94;82.54;98926.06;4946028;29;20125;-94
2022/06/12 02:16:47;;;;;;;8.13;5.15;;;;;;;17.81;82.91;98902.56;4926476;29;20031;-95
2022/06/12 02:19:23;;;;;;;4.07;3.67;;;;;;;17.91;81.59;98915.06;4941650;29;20042;-95
2022/06/12 02:21:58;;;;;;;4.40;3.92;;;;;;;17.92;82.26;98922.88;4926671;29;20027;-93
2022/06/12 02:24:37;;;;;;;4.72;4.32;;;;;;;17.91;82.20;98921.28;4959104;28;20023;-93
2022/06/12 02:27:08;;;;;;;5.55;5.05;;;;;;;17.92;82.20;98928.31;4974226;28;20025;-93
2022/06/12 02:29:35;;;;;;;5.70;4.95;;;;;;;17.77;82.65;98918.75;4926254;29;20031;-94
2022/06/12 02:32:38;;;;;;;6.35;5.07;;;;;;;17.95;83.21;98937.75;4957661;29;20028;-93
2022/06/12 02:35:17;;;;;;;6.03;5.43;;;;;;;18.02;82.30;98940.78;4976891;28;20039;-92
2022/06/12 02:37:54;;;;;;;6.20;5.60;;;;;;;17.85;82.41;98903.53;4973713;28;20042;-93
2022/06/12 02:40:29;;;;;;;6.43;5.82;;;;;;;18.03;82.10;98915.13;4926315;29;20027;-92
2022/06/12 02:42:57;;;;;;;7.07;6.10;;;;;;;18.05;81.43;98910.16;4958322;29;20039;-94
2022/06/12 02:45:33;;;;;;;5.68;5.10;;;;;;;17.93;81.69;98910.09;4926230;29;20030;-92
2022/06/12 02:47:59;;;;;;;6.75;5.78;;;;;;;18.04;82.36;98937.75;4942081;29;20490;-94
2022/06/12 02:50:25;;;;;;;7.18;6.05;;;;;;;17.95;82.56;98918.69;4973296;28;20038;-94
2022/06/12 02:53:19;;;;;;;6.20;5.60;;;;;;;18.13;81.86;98938.47;4926073;29;20031;-93
2022/06/12 02:56:19;;;;;;;6.90;6.10;;;;;;;18.07;83.06;98931.63;4958419;29;20058;-94
2022/06/12 02:58:52;;;;;;;6.85;6.00;;;;;;;18.17;82.21;98932.03;4941140;29;20042;-94
2022/06/12 03:01:20;;;;;;;5.93;5.32;;;;;;;18.22;81.55;98936.50;4925229;29;20228;-93
2022/06/12 03:04:04;;;;;;;6.70;6.00;;;;;;;18.28;81.98;98943.38;4925420;29;20555;-93
2022/06/12 03:06:34;;;;;;;11.00;6.85;;;;;;;18.17;82.84;98920.34;4956866;29;20027;-94
2022/06/12 03:09:00;;;;;;;7.18;5.75;;;;;;;18.26;82.64;98929.28;4957074;29;20039;-93
2022/06/12 03:11:33;;;;;;;6.57;5.93;;;;;;;18.20;82.18;98921.59;4939973;29;20027;-94
2022/06/12 03:13:59;;;;;;;7.15;6.45;;;;;;;18.26;82.13;98918.38;4941111;29;20130;-94
2022/06/12 03:16:36;;;;;;;6.75;6.15;;;;;;;18.32;82.08;98917.06;4940196;29;20114;-94
2022/06/12 03:19:54;;;;;;;6.32;4.88;;;;;;;18.23;80.84;98913.56;4955590;29;20035;-94
2022/06/12 03:22:31;;;;;;;5.13;4.60;;;;;;;18.42;80.92;98940.38;4972324;28;20561;-94
2022/06/12 03:25:22;;;;;;;4.18;3.78;;;;;;;18.27;81.38;98946.41;4971657;28;20057;-93
2022/06/12 03:28:08;;;;;;;7.97;3.97;;;;;;;18.19;81.39;98912.63;4939679;29;20037;-94
2022/06/12 03:30:46;;;;;;;8.15;3.50;;;;;;;18.26;81.17;98921.09;4926772;29;20290;-94
2022/06/12 03:33:29;;;;;;;5.93;3.30;;;;;;;18.28;81.63;98923.47;4924082;29;20055;-94
2022/06/12 03:36:16;;;;;;;5.13;3.15;;;;;;;18.31;81.54;98922.81;4923731;29;20051;-95
2022/06/12 03:38:56;;;;;;;4.38;1.45;;;;;;;18.26;81.16;98923.00;4939864;29;20040;-93
2022/06/12 03:41:52;;;;;;;5.40;1.92;;;;;;;18.22;81.71;98943.88;4939536;28;20031;-93
2022/06/12 03:44:49;;;;;;;6.10;2.30;;;;;;;18.04;82.40;98924.13;4939302;29;20395;-92
2022/06/12 03:47:36;;;;;;;1.77;0.77;;;;;;;18.01;80.71;98931.00;4908297;29;20633;-94
2022/06/12 03:50:13;;;;;;;2.33;1.08;;;;;;;17.90;80.86;98916.97;4907817;29;20040;-93
2022/06/12 03:52:49;;;;;;;2.25;0.88;;;;;;;18.02;80.85;98940.00;4921639;29;20036;-94
2022/06/12 03:55:18;;;;;;;3.47;2.30;;;;;;;17.95;81.24;98938.56;4921259;29;20082;-94
2022/06/12 03:57:52;;;;;;;3.45;2.88;;;;;;;17.98;81.07;98932.47;4936799;29;20046;-92
2022/06/12 04:00:37;;;;;;;5.05;3.40;;;;;;;17.94;82.10;98926.06;4890859;29;20031;-93
2022/06/12 04:03:05;;;;;;;6.68;3.60;;;;;;;18.06;81.83;98935.47;4889446;29;20039;-92
2022/06/12 04:05:33;;;;;;;5.45;4.78;;;;;;;18.05;82.25;98933.88;4935637;29;20031;-93
2022/06/12 04:08:00;;;;;;;7.57;5.88;;;;;;;18.01;81.95;98930.22;4905270;29;20043;-93
2022/06/12 04:10:29;;;;;;;7.32;5.38;;;;;;;18.05;82.21;98944.78;4920167;29;20038;-93
2022/06/12 04:12:55;;;;;;;6.13;5.63;;;;;;;18.03;82.30;98930.69;4905538;29;20525;-93
2022/06/12 04:15:23;;;;;;;7.78;6.70;;;;;;;17.99;82.99;98938.69;4921164;29;20032;-94
2022/06/12 04:17:49;;;;;;;6.82;6.10;;;;;;;18.04;82.14;98954.09;4943524;29;20059;-94
2022/06/12 04:20:18;;;;;;;7.72;6.22;;;;;;;17.96;82.27;98944.81;4971871;28;20561;-95
2022/06/12 04:23:04;;;;;;;6.47;5.88;;;;;;;18.04;82.07;98952.16;4924434;29;20031;-95
2022/06/12 04:25:32;;;;;;;7.07;6.38;;;;;;;17.96;82.35;98951.06;4955759;29;20034;-95
2022/06/12 04:27:58;;;;;;;7.70;6.95;;;;;;;17.88;82.43;98937.50;4954504;28;20203;-94
2022/06/12 04:30:34;;;;;;;8.13;7.32;;;;;;;18.08;82.51;98955.03;4940028;29;20039;-95
2022/06/12 04:33:45;;;;;;;8.32;6.78;;;;;;;18.11;82.50;98957.09;4940134;29;20517;-95
2022/06/12 04:36:15;;;;;;;8.15;7.32;;;;;;;17.96;82.35;98937.44;4956659;29;20524;-93
2022/06/12 04:38:41;;;;;;;8.63;7.72;;;;;;;18.08;82.01;98944.91;4955630;28;20405;-94
2022/06/12 04:41:07;;;;;;;10.20;8.35;;;;;;;18.13;82.51;98952.09;4939900;29;20023;-94
2022/06/12 04:43:33;;;;;;;9.45;8.52;;;;;;;18.16;82.17;98943.28;4939923;29;20028;-94
2022/06/12 04:45:58;;;;;;;9.20;8.30;;;;;;;18.18;82.35;98955.44;4955032;28;20027;-95
2022/06/12 04:48:49;;;;;;;9.57;8.52;;;;;;;18.41;81.77;98965.22;4923931;29;20457;-94
2022/06/12 04:51:16;;;;;;;9.35;8.05;;;;;;;18.34;82.33;98944.78;4935518;29;20039;-95
2022/06/12 04:53:42;;;;;;;9.40;8.10;;;;;;;18.43;81.51;98952.06;4935597;29;20413;-94
2022/06/12 04:56:08;;;;;;;11.30;7.85;;;;;;;18.40;81.16;98942.63;4904902;29;20043;-94
2022/06/12 04:58:35;;;;;;;8.20;7.40;;;;;;;18.64;81.17;98973.94;4936281;29;20039;-95
2022/06/12 05:01:02;;;;;;;8.48;7.57;;;;;;;18.61;80.98;98955.50;4903650;29;20058;-96
2022/06/12 05:03:30;;;;;;;8.63;7.82;;;;;;;18.68;81.06;98970.19;4935510;29;20043;-95
2022/06/12 05:05:56;;;;;;;7.65;6.85;;;;;;;18.61;81.02;98974.56;4919626;29;20075;-94
2022/06/12 05:08:22;;;;;;;7.07;6.38;;;;;;;18.56;81.10;98959.22;4935102;29;20047;-92
2022/06/12 05:10:47;;;;;;;8.60;7.35;;;;;;;18.67;81.78;98984.94;4934890;29;20426;-92
2022/06/12 05:13:14;;;;;;;7.68;6.50;;;;;;;18.62;81.13;98962.56;4950994;28;20059;-92
2022/06/12 05:15:40;;;;;;;6.65;6.05;;;;;;;18.82;80.75;98986.31;4934376;29;20122;-92
2022/06/12 05:18:07;;;;;;;7.40;6.35;;;;;;;18.78;80.93;98990.84;4920268;29;20158;-92
2022/06/12 05:20:36;;;;;;;7.35;5.75;;;;;;;18.73;80.23;98978.16;4934475;29;20040;-92
2022/06/12 05:23:03;;;;;;;7.05;5.63;;;;;;;18.62;80.74;98962.56;4964601;28;20486;-92
2022/06/12 05:25:30;;;;;;;6.78;5.30;;;;;;;18.71;80.83;98971.47;4938218;29;20146;-92
2022/06/12 05:27:56;;;;;;;6.28;5.68;;;;;;;18.77;81.25;98990.00;4922559;29;20035;-93
2022/06/12 05:30:24;;;;;;;6.05;5.30;;;;;;;18.77;80.33;98979.09;4937982;29;20039;-92
2022/06/12 05:32:50;;;;;;;7.63;6.07;;;;;;;18.84;81.43;98988.72;4937931;29;20043;-93
2022/06/12 05:35:18;;;;;;;6.65;5.50;;;;;;;18.89;80.78;98988.53;4970010;28;20089;-93
2022/06/12 05:37:44;;;;;;;7.70;6.13;;;;;;;18.87;80.14;98988.06;4954481;28;20055;-93
2022/06/12 05:40:14;;;;;;;6.72;6.03;;;;;;;18.86;80.21;98983.72;4922235;29;20496;-92
2022/06/12 05:42:40;;;;;;;8.70;7.10;;;;;;;18.96;80.98;98995.03;4938435;29;20023;-94
2022/06/12 05:45:07;;;;;;;9.60;7.50;;;;;;;18.82;81.45;98996.44;4969611;28;20426;-93
2022/06/12 05:47:32;;;;;;;7.90;7.10;;;;;;;18.91;81.08;99006.16;4954269;28;20031;-93
2022/06/12 05:50:01;;;;;;;8.63;7.43;;;;;;;18.90;81.15;99003.75;4970257;28;20046;-91
2022/06/12 05:52:27;;;;;;;9.90;8.25;;;;;;;18.93;81.50;99005.81;4938255;29;20035;-94
2022/06/12 05:54:52;;;;;;;9.13;7.00;;;;;;;18.89;80.88;98993.97;4922503;29;20401;-93
2022/06/12 05:57:19;;;;;;;8.00;7.20;;;;;;;19.00;81.19;99017.00;4934208;29;20379;-94
2022/06/12 05:59:45;;;;;;;9.63;7.78;;;;;;;19.01;80.52;99017.78;4938434;29;20091;-94
2022/06/12 06:02:11;;;;;;;9.10;8.20;;;;;;;18.90;80.15;98990.91;4937991;29;20062;-94
2022/06/12 06:04:37;;;;;;;10.40;9.32;;;;;;;18.94;80.14;99004.69;4969956;28;20023;-94
2022/06/12 06:07:03;;;;;;;12.05;9.90;;;;;;;18.88;80.96;99009.53;4938257;29;20035;-93
2022/06/12 06:09:29;;;;;;;12.50;10.07;;;;;;;19.03;80.33;99020.97;4954210;29;20035;-93
2022/06/12 06:11:55;;;;;;;10.55;9.00;;;;;;;18.94;79.71;99012.88;4937799;29;20054;-94
2022/06/12 06:14:21;;;;;;;10.85;9.75;;;;;;;19.09;79.88;99020.47;4969790;28;20034;-94
2022/06/12 06:16:51;;;;;;;11.75;8.80;;;;;;;18.98;79.71;99011.06;4938209;29;20023;-94
2022/06/12 06:19:19;;;;;;;10.30;8.50;;;;;;;19.00;79.46;99008.81;4938388;29;20595;-93
2022/06/12 06:21:45;;;;;;;8.70;7.88;;;;;;;18.98;79.02;99005.63;4954210;29;20019;-94
2022/06/12 06:24:10;;;;;;;11.07;8.75;;;;;;;19.00;78.67;99017.00;4922914;29;20031;-95
2022/06/12 06:26:36;;;;;;;11.77;9.48;;;;;;;19.03;80.23;99010.88;4938175;29;20070;-93
2022/06/12 06:29:03;;;;;;;10.57;8.63;;;;;;;19.05;79.10;99008.63;4938931;29;20478;-93
2022/06/12 06:31:30;;;;;;;11.07;9.70;;;;;;;19.13;79.59;99015.94;4938778;29;20516;-95
2022/06/12 06:33:56;;;;;;;12.32;8.68;;;;;;;19.17;78.12;99018.78;4922668;29;20031;-94
2022/06/12 06:36:23;;;;;;;9.93;8.90;;;;;;;19.21;79.51;99022.44;4937945;29;20160;-94
2022/06/12 06:38:52;;;;;;;11.45;9.00;;;;;;;19.28;79.07;99027.34;4954668;29;20025;-94
2022/06/12 06:41:18;;;;;;;9.93;8.27;;;;;;;19.42;78.06;99021.59;4954315;28;20023;-95
2022/06/12 06:46:28;;;;;;;9.88;8.48;;;;;;;19.55;78.22;99032.25;4941892;29;20093;-95
2022/06/12 06:48:54;;;;;;;11.50;9.38;;;;;;;19.62;78.14;99059.00;4938244;29;20479;-95
2022/06/12 06:51:19;;;;;;;12.27;9.63;;;;;;;19.29;78.90;99021.56;4924385;29;20174;-95
2022/06/12 06:53:46;;;;;;;10.45;8.13;;;;;;;19.38;77.81;99024.19;4926283;29;20027;-95
2022/06/12 06:56:12;;;;;;;11.00;9.27;;;;;;;19.58;78.66;99058.06;4957913;29;20109;-94
2022/06/12 06:58:39;;;;;;;11.40;8.85;;;;;;;19.46;77.87;99045.16;4941930;29;20027;-96
2022/06/12 07:01:07;;;;;;;10.38;9.27;;;;;;;19.48;78.57;99034.72;4942164;29;20037;-95
2022/06/12 07:03:36;;;;;;;9.13;8.23;;;;;;;19.52;77.43;99049.28;4942919;29;20031;-95
2022/06/12 07:06:02;;;;;;;11.40;7.95;;;;;;;19.36;77.41;99035.47;4927344;29;20041;-95
2022/06/12 07:08:28;;;;;;;11.77;10.15;;;;;;;19.48;78.26;99040.16;4942285;29;20027;-95
2022/06/12 07:10:56;;;;;;;10.38;8.85;;;;;;;19.29;77.97;99028.97;4942153;29;20167;-95
2022/06/12 07:13:23;;;;;;;10.48;8.50;;;;;;;19.48;77.41;99042.91;4925912;29;20158;-95
2022/06/12 07:15:50;;;;;;;10.63;9.25;;;;;;;19.38;78.47;99033.22;4942328;29;20059;-94
2022/06/12 07:18:20;;;;;;;10.85;9.85;;;;;;;19.40;78.50;99041.03;4957396;28;20102;-93
2022/06/12 07:20:52;;;;;;;10.13;9.13;;;;;;;19.37;77.58;99050.72;4942305;28;20363;-94
2022/06/12 07:23:18;;;;;;;10.55;8.70;;;;;;;19.36;78.04;99040.94;4926211;29;20465;-95
2022/06/12 07:26:07;;;;;;;9.65;8.55;;;;;;;19.42;77.76;99063.34;4944721;29;20018;-95
2022/06/12 07:29:44;;;;;;;13.20;9.98;;;;;;;19.24;78.56;99040.09;4966965;28;20051;-96
2022/06/12 07:32:10;;;;;;;10.85;9.20;;;;;;;19.39;77.86;99050.38;4958274;28;20094;-96
2022/06/12 07:34:53;;;;;;;11.90;9.23;;;;;;;19.56;77.61;99055.69;4960502;28;20445;-95
2022/06/12 07:37:45;;;;;;;9.38;8.38;;;;;;;19.71;77.55;99053.47;4948412;29;20054;-96
2022/06/12 07:40:27;;;;;;;10.77;9.15;;;;;;;19.73;77.99;99049.25;4918783;29;20102;-95
2022/06/12 07:43:23;;;;;;;13.38;9.70;;;;;;;20.04;78.02;99069.03;4929901;29;20186;-95
2022/06/12 07:45:57;;;;;;;10.73;9.25;;;;;;;20.26;77.17;99071.34;4928990;29;20254;-95
2022/06/12 07:48:35;;;;;;;;;;;;;;;;;;;;;
2022/06/12 07:51:12;;;;;;;13.38;9.20;;;;;;;20.26;76.53;99041.28;4933369;29;20111;-96
2022/06/12 07:53:40;;;;;;;8.95;8.05;;;;;;;20.27;76.11;99031.13;4943035;29;20163;-94
2022/06/12 07:56:08;;;;;;;11.25;8.90;;;;;;;20.51;76.32;99038.53;4929801;29;20190;-93
2022/06/12 07:58:36;;;;;;;8.80;7.78;;;;;;;20.56;74.38;99039.09;4924569;29;20023;-94
2022/06/12 08:01:07;;;;;;;9.68;7.95;;;;;;;20.68;74.46;99052.00;4940073;29;20038;-95
2022/06/12 08:03:33;;;;;;;10.40;8.10;;;;;;;20.64;75.57;99044.84;4970320;28;20094;-96
2022/06/12 08:06:01;;;;;;;10.65;7.20;;;;;;;20.83;73.01;99047.75;4958035;28;20058;-95
2022/06/12 08:08:27;;;;;;;9.23;7.10;;;;;;;20.89;73.52;99045.59;4973180;28;20118;-96
2022/06/12 08:10:55;;;;;;;7.80;7.00;;;;;;;20.84;72.50;99049.38;4940481;29;20085;-95
2022/06/12 08:13:21;;;;;;;8.95;7.30;;;;;;;20.82;73.77;99059.84;4937004;29;20034;-94
2022/06/12 08:15:47;;;;;;;9.45;7.43;;;;;;;20.61;73.45;99059.19;4932498;29;20023;-94
2022/06/12 08:18:19;;;;;;;11.27;8.27;;;;;;;20.44;73.88;99061.00;4931259;29;20046;-96
2022/06/12 08:20:57;;;;;;;10.02;7.75;;;;;;;20.52;75.10;99062.81;4966435;29;20031;-95
2022/06/12 08:23:55;;;;;;;10.15;8.23;;;;;;;20.41;74.65;99049.94;4952513;29;20090;-96
2022/06/12 08:26:38;;;;;;;9.57;7.80;;;;;;;20.43;74.50;99066.81;4966889;29;20031;-95
2022/06/12 08:29:22;;;;;;;;;;;;;;;20.42;75.91;99079.69;4966612;29;20105;-95
2022/06/12 08:31:51;;;;;;;11.43;9.30;;;;;;;20.32;76.40;99058.25;4971506;28;19953;-95
2022/06/12 08:34:22;;;;;;;12.23;9.10;;;;;;;20.43;77.11;99077.75;4928706;29;20031;-92
2022/06/12 08:36:53;;;;;;;8.95;7.28;;;;;;;20.40;74.96;99065.56;4957981;29;20497;-93
2022/06/12 08:39:19;;;;;;;10.63;8.23;;;;;;;20.53;76.12;99069.09;4955378;28;20039;-92
2022/06/12 08:42:05;;;;;;;9.63;7.30;;;;;;;20.66;75.79;99067.97;4971171;28;20019;-92
2022/06/12 08:45:10;;;;;;;8.80;6.85;;;;;;;20.81;73.43;99054.72;4941562;29;20594;-92
2022/06/12 08:47:41;;;;;;;9.00;6.88;;;;;;;20.89;73.50;99067.47;4941423;29;20027;-92
2022/06/12 08:50:38;;;;;;;8.57;7.00;;;;;;;20.87;74.74;99067.81;4923628;29;20029;-93
2022/06/12 08:53:03;;;;;;;7.63;6.60;;;;;;;20.71;74.14;99067.75;4953746;29;20035;-94
2022/06/12 08:55:37;;;;;;;8.80;7.25;;;;;;;20.63;75.24;99051.44;4954612;29;20042;-92
2022/06/12 08:58:22;;;;;;;10.68;7.30;;;;;;;20.90;73.90;99069.88;4953973;29;20382;-92
2022/06/12 09:00:47;;;;;;;8.00;7.15;;;;;;;20.77;73.44;99051.88;4954327;29;20177;-92
2022/06/12 09:03:17;;;;;;;8.43;7.45;;;;;;;20.88;74.32;99049.47;4923453;29;20035;-92
2022/06/12 09:05:53;;;;;;;10.23;7.80;;;;;;;20.86;75.15;99052.56;4939607;29;20549;-94
2022/06/12 09:08:51;;;;;;;9.43;7.97;;;;;;;20.79;76.10;99044.94;4954785;29;20031;-93
2022/06/12 09:11:20;;;;;;;10.63;8.00;;;;;;;20.89;76.31;99054.59;4973984;28;20027;-94
2022/06/12 09:13:58;;;;;;;9.60;7.97;;;;;;;20.95;76.40;99075.09;4954214;28;20038;-94
2022/06/12 09:16:43;;;;;;;8.93;6.38;;;;;;;20.91;73.61;99065.19;4956044;29;20031;-94
2022/06/12 09:19:18;;;;;;;10.15;8.02;;;;;;;20.77;75.84;99071.03;4955080;29;20065;-94
2022/06/12 09:22:28;;;;;;;10.52;8.93;;;;;;;20.71;76.49;99065.00;4923328;29;20019;-94
2022/06/12 09:25:00;;;;;;;10.32;8.77;;;;;;;20.82;76.52;99054.38;4942705;29;20039;-94
2022/06/12 09:27:49;;;;;;;12.07;9.27;;;;;;;20.81;76.76;99069.19;4951933;29;20078;-94
2022/06/12 09:30:21;;;;;;;9.07;7.80;;;;;;;20.83;76.04;99074.34;4939735;29;20035;-94
2022/06/12 09:33:18;;;;;;;13.00;8.25;;;;;;;20.98;76.20;99076.38;4971552;28;20034;-93
2022/06/12 09:35:51;;;;;;;7.90;7.07;;;;;;;20.91;74.74;99081.63;4955136;29;20058;-94
2022/06/12 09:38:41;;;;;;;8.55;7.13;;;;;;;21.01;75.89;99083.09;4955529;29;20038;-94
2022/06/12 09:41:20;;;;;;;8.27;7.22;;;;;;;20.61;75.12;99053.72;4954396;29;20500;-94
2022/06/12 09:43:57;;;;;;;10.00;6.95;;;;;;;20.92;74.07;99083.22;4970134;28;20027;-95
2022/06/12 09:46:46;;;;;;;9.10;7.72;;;;;;;20.84;75.48;99063.03;4953901;29;20058;-94
2022/06/12 09:49:21;;;;;;;9.52;7.97;;;;;;;20.90;76.69;99071.81;4953983;29;20085;-93
2022/06/12 09:52:08;;;;;;;11.32;7.53;;;;;;;21.02;75.36;99074.50;4953730;29;20031;-92
2022/06/12 09:54:39;;;;;;;10.57;7.38;;;;;;;20.83;74.78;99050.50;4953488;29;20109;-92
2022/06/12 09:57:31;;;;;;;13.30;9.00;;;;;;;20.92;75.71;99055.84;4937578;29;20035;-93
2022/06/12 09:59:59;;;;;;;9.80;7.65;;;;;;;21.10;75.41;99065.38;4938205;29;20775;-90
2022/06/12 10:02:34;;;;;;;11.43;8.07;;;;;;;21.11;75.78;99057.97;4953214;29;20035;-93
2022/06/12 10:05:19;;;;;;;8.48;6.65;;;;;;;20.79;74.42;99058.63;4922715;29;20094;-93
2022/06/12 10:08:11;;;;;;;7.30;6.60;;;;;;;21.03;75.24;99072.59;4923940;29;20023;-94
2022/06/12 10:11:07;;;;;;;7.93;6.80;;;;;;;21.18;74.44;99078.13;4917739;29;20036;-92
2022/06/12 10:13:39;;;;;;;11.32;6.68;;;;;;;21.17;74.21;99087.50;4952663;29;20133;-93
2022/06/12 10:16:13;;;;;;;8.85;7.07;;;;;;;21.18;75.88;99067.19;4936055;29;20031;-93
2022/06/12 10:19:09;;;;;;;7.07;5.82;;;;;;;21.27;74.18;99069.78;4921030;29;20043;-93
2022/06/12 10:21:36;;;;;;;7.72;6.05;;;;;;;21.26;73.37;99062.72;4914747;29;20134;-95
2022/06/12 10:24:03;;;;;;;6.78;5.93;;;;;;;21.24;73.22;99048.56;4898154;29;20075;-94
2022/06/12 10:26:30;;;;;;;6.30;5.70;;;;;;;21.24;74.46;99062.25;4916443;29;20036;-93
2022/06/12 10:29:03;;;;;;;6.45;5.50;;;;;;;21.16;73.41;99063.19;4902402;29;20043;-93
2022/06/12 10:31:33;;;;;;;7.25;5.40;;;;;;;21.18;73.14;99042.53;4934674;29;20044;-93
2022/06/12 10:34:32;;;;;;;6.72;6.00;;;;;;;21.27;74.14;99068.97;4903150;29;20182;-93
2022/06/12 10:37:24;;;;;;;7.57;6.00;;;;;;;21.36;73.07;99055.94;4903118;29;20048;-91
2022/06/12 10:40:14;;;;;;;7.80;5.97;;;;;;;21.49;73.41;99049.28;4918846;29;20138;-92
2022/06/12 10:42:51;;;;;;;7.78;5.60;;;;;;;21.53;73.17;99038.44;4902553;29;20180;-95
2022/06/12 10:45:33;;;;;;;8.07;6.28;;;;;;;21.46;73.48;99043.72;4886954;29;20040;-92
2022/06/12 10:48:02;;;;;;;8.23;5.78;;;;;;;21.42;74.20;99034.59;4918232;29;20101;-93
2022/06/12 10:50:33;;;;;;;7.07;6.00;;;;;;;21.29;73.08;99023.69;4935528;29;20039;-93
2022/06/12 10:53:11;;;;;;;7.30;6.22;;;;;;;21.35;73.20;99032.44;4937906;29;20078;-92
2022/06/12 10:56:07;;;;;;;7.03;6.18;;;;;;;21.36;73.91;99034.03;4958793;28;20035;-93
2022/06/12 10:58:55;;;;;;;13.77;11.60;;;;;;;21.32;74.70;99024.94;4957716;29;20402;-94
2022/06/12 11:01:36;;;;;;;9.65;7.32;;;;;;;21.19;74.37;99011.28;4941592;29;20496;-92
2022/06/12 11:04:02;;;;;;;7.28;5.80;;;;;;;21.37;73.86;99016.44;4942385;29;20066;-93
2022/06/12 11:07:05;;;;;;;6.80;6.20;;;;;;;21.34;74.38;99003.47;4956923;29;20035;-92
2022/06/12 11:09:58;;;;;;;8.10;6.93;;;;;;;21.39;74.40;99034.16;4942959;29;20130;-93
2022/06/12 11:12:26;;;;;;;10.25;6.95;;;;;;;21.31;74.89;99020.56;4956840;29;20486;-93
2022/06/12 11:15:26;;;;;;;7.65;6.38;;;;;;;21.42;73.93;99020.91;4956589;29;20031;-92
2022/06/12 11:18:03;;;;;;;7.47;6.53;;;;;;;21.31;74.29;99009.63;4956320;29;20075;-93
2022/06/12 11:20:49;;;;;;;8.40;6.60;;;;;;;21.36;74.87;99012.91;4956508;29;20035;-93
2022/06/12 11:23:21;;;;;;;11.57;5.90;;;;;;;21.54;73.68;99009.88;4956903;29;20026;-92
2022/06/12 11:26:10;;;;;;;;;;;;;;;21.75;72.28;99015.94;4958026;29;20035;-94
2022/06/12 11:28:52;;;;;;;7.32;5.57;;;;;;;22.03;71.36;99017.81;4973332;28;19914;-94
2022/06/12 11:31:17;;;;;;;;;;;;;;;22.13;69.91;99011.00;4957377;29;20062;-93
2022/06/12 11:33:51;;;;;;;5.95;4.90;;;;;;;22.07;70.37;99004.97;4957741;28;19910;-93
2022/06/12 11:36:37;;;;;;;6.72;4.80;;;;;;;22.13;68.84;99020.03;4956798;28;20062;-93
2022/06/12 11:39:28;;;;;;;7.50;5.53;;;;;;;22.22;70.17;99024.53;4941447;29;20556;-93
2022/06/12 11:42:16;;;;;;;5.90;5.18;;;;;;;22.09;69.36;99021.09;4956621;29;20413;-93
2022/06/12 11:45:10;;;;;;;6.35;4.82;;;;;;;22.12;69.77;99021.19;4957959;29;20533;-93
2022/06/12 11:47:53;;;;;;;5.53;4.97;;;;;;;22.23;69.64;99012.41;4956031;29;20038;-94
2022/06/12 11:51:13;;;;;;;5.85;4.78;;;;;;;22.25;68.63;98989.00;4956038;29;20035;-93
2022/06/12 11:53:58;;;;;;;6.35;4.80;;;;;;;22.48;66.46;98985.59;4944700;29;20075;-94
2022/06/12 11:56:33;;;;;;;6.53;4.38;;;;;;;22.69;66.99;98990.75;4924829;29;20019;-92
2022/06/12 11:59:13;;;;;;;11.00;6.93;;;;;;;22.96;67.26;98986.22;4956008;29;20027;-94
2022/06/12 12:02:03;;;;;;;9.02;5.30;;;;;;;23.01;68.38;98974.97;4956767;28;20035;-93
2022/06/12 12:04:43;;;;;;;11.38;5.65;;;;;;;22.93;67.90;98973.22;4955810;29;20031;-94
2022/06/12 12:07:52;;;;;;;6.90;4.90;;;;;;;22.99;66.01;98966.28;4955754;29;20086;-93
2022/06/12 12:10:24;;;;;;;4.47;4.00;;;;;;;23.18;64.99;98976.50;4935014;29;20039;-93
2022/06/12 12:12:55;;;;;;;7.15;4.82;;;;;;;22.90;65.78;98965.72;4957054;29;20118;-93
2022/06/12 12:15:26;;;;;;;;;;;;;;;22.94;64.50;98970.09;4925054;29;20023;-93
2022/06/12 12:17:52;;;;;;;4.57;3.97;;;;;;;23.00;65.06;98960.44;4971848;28;20420;-93
2022/06/12 12:20:25;;;;;;;10.65;4.50;;;;;;;23.07;64.78;98937.03;4972313;28;20031;-94